sensor_id;sensor_type;location;lat;lon;timestamp;temperature;humidity
35804;DHT22;21924;51.934;7.414;2022-07-15T00:00:21;14.20;99.90
35804;DHT22;21924;51.934;7.414;2022-07-15T00:03:05;14.20;99.90
35804;DHT22;21924;51.934;7.414;2022-07-15T00:05:50;14.10;99.90
35804;DHT22;21924;51.934;7.414;2022-07-15T00:08:35;14.10;99.90
35804;DHT22;21924;51.934;7.414;2022-07-15T00:11:19;14.10;99.90
35804;DHT22;21924;51.934;7.414;2022-07-15T00:14:04;14.00;99.90
35804;DHT22;21924;51.934;7.414;2022-07-15T00:16:48;14.00;99.90
35804;DHT22;21924;51.934;7.414;2022-07-15T00:19:34;14.00;99.90
35804;DHT22;21924;51.934;7.414;2022-07-15T00:22:18;14.00;99.90
35804;DHT22;21924;51.934;7.414;2022-07-15T00:25:03;13.90;99.90
35804;DHT22;21924;51.934;7.414;2022-07-15T00:28:05;13.90;99.90
35804;DHT22;21924;51.934;7.414;2022-07-15T00:30:50;13.90;99.90
35804;DHT22;21924;51.934;7.414;2022-07-15T00:33:35;13.90;99.90
35804;DHT22;21924;51.934;7.414;2022-07-15T00:36:19;13.80;99.90
35804;DHT22;21924;51.934;7.414;2022-07-15T00:39:03;13.80;99.90
35804;DHT22;21924;51.934;7.414;2022-07-15T00:41:48;13.70;99.90
35804;DHT22;21924;51.934;7.414;2022-07-15T00:44:32;13.70;99.90
35804;DHT22;21924;51.934;7.414;2022-07-15T00:47:17;13.60;99.90
35804;DHT22;21924;51.934;7.414;2022-07-15T00:50:01;13.60;99.90
35804;DHT22;21924;51.934;7.414;2022-07-15T00:52:50;13.60;99.90
35804;DHT22;21924;51.934;7.414;2022-07-15T00:55:41;13.60;99.90
35804;DHT22;21924;51.934;7.414;2022-07-15T00:58:27;13.50;99.90
35804;DHT22;21924;51.934;7.414;2022-07-15T01:01:14;13.50;99.90
35804;DHT22;21924;51.934;7.414;2022-07-15T01:04:04;13.40;99.90
35804;DHT22;21924;51.934;7.414;2022-07-15T01:06:49;13.40;99.90
35804;DHT22;21924;51.934;7.414;2022-07-15T01:09:33;13.40;99.90
35804;DHT22;21924;51.934;7.414;2022-07-15T01:12:18;13.40;99.90
35804;DHT22;21924;51.934;7.414;2022-07-15T01:15:03;13.30;99.90
35804;DHT22;21924;51.934;7.414;2022-07-15T01:17:48;13.30;99.90
35804;DHT22;21924;51.934;7.414;2022-07-15T01:20:32;13.30;99.90
35804;DHT22;21924;51.934;7.414;2022-07-15T01:23:17;13.10;99.90
35804;DHT22;21924;51.934;7.414;2022-07-15T01:26:02;13.00;99.90
35804;DHT22;21924;51.934;7.414;2022-07-15T01:28:46;12.80;99.90
35804;DHT22;21924;51.934;7.414;2022-07-15T01:31:31;12.70;99.90
35804;DHT22;21924;51.934;7.414;2022-07-15T01:34:15;12.60;99.90
35804;DHT22;21924;51.934;7.414;2022-07-15T01:37:00;12.50;99.90
35804;DHT22;21924;51.934;7.414;2022-07-15T01:39:44;12.40;99.90
35804;DHT22;21924;51.934;7.414;2022-07-15T01:42:30;12.40;99.90
35804;DHT22;21924;51.934;7.414;2022-07-15T01:45:15;12.40;99.90
35804;DHT22;21924;51.934;7.414;2022-07-15T01:47:59;12.40;99.90
35804;DHT22;21924;51.934;7.414;2022-07-15T01:50:43;12.30;99.90
35804;DHT22;21924;51.934;7.414;2022-07-15T01:53:28;12.30;99.90
35804;DHT22;21924;51.934;7.414;2022-07-15T01:56:13;12.40;99.90
35804;DHT22;21924;51.934;7.414;2022-07-15T01:58:57;12.50;99.90
35804;DHT22;21924;51.934;7.414;2022-07-15T02:01:42;12.50;99.90
35804;DHT22;21924;51.934;7.414;2022-07-15T02:04:27;12.50;99.90
35804;DHT22;21924;51.934;7.414;2022-07-15T02:07:11;12.50;99.90
35804;DHT22;21924;51.934;7.414;2022-07-15T02:09:56;12.50;99.90
35804;DHT22;21924;51.934;7.414;2022-07-15T02:12:40;12.50;99.90
35804;DHT22;21924;51.934;7.414;2022-07-15T02:15:25;12.60;99.90
35804;DHT22;21924;51.934;7.414;2022-07-15T02:18:10;12.60;99.90
35804;DHT22;21924;51.934;7.414;2022-07-15T02:20:54;12.50;99.90
35804;DHT22;21924;51.934;7.414;2022-07-15T02:23:38;12.50;99.90
35804;DHT22;21924;51.934;7.414;2022-07-15T02:26:23;12.50;99.90
35804;DHT22;21924;51.934;7.414;2022-07-15T02:29:07;12.50;99.90
35804;DHT22;21924;51.934;7.414;2022-07-15T02:31:51;12.50;99.90
35804;DHT22;21924;51.934;7.414;2022-07-15T02:34:36;12.40;99.90
35804;DHT22;21924;51.934;7.414;2022-07-15T02:37:20;12.40;99.90
35804;DHT22;21924;51.934;7.414;2022-07-15T02:40:05;12.30;99.90
35804;DHT22;21924;51.934;7.414;2022-07-15T02:42:51;12.30;99.90
35804;DHT22;21924;51.934;7.414;2022-07-15T02:45:36;12.10;99.90
35804;DHT22;21924;51.934;7.414;2022-07-15T02:48:21;12.10;99.90
35804;DHT22;21924;51.934;7.414;2022-07-15T02:51:06;12.10;99.90
35804;DHT22;21924;51.934;7.414;2022-07-15T02:53:51;12.10;99.90
35804;DHT22;21924;51.934;7.414;2022-07-15T02:56:35;12.10;99.90
35804;DHT22;21924;51.934;7.414;2022-07-15T02:59:19;12.10;99.90
35804;DHT22;21924;51.934;7.414;2022-07-15T03:02:04;12.10;99.90
35804;DHT22;21924;51.934;7.414;2022-07-15T03:04:48;12.10;99.90
35804;DHT22;21924;51.934;7.414;2022-07-15T03:07:33;12.10;99.90
35804;DHT22;21924;51.934;7.414;2022-07-15T03:10:17;12.00;99.90
35804;DHT22;21924;51.934;7.414;2022-07-15T03:13:03;11.90;99.90
35804;DHT22;21924;51.934;7.414;2022-07-15T03:15:47;11.70;99.90
35804;DHT22;21924;51.934;7.414;2022-07-15T03:18:32;11.60;99.90
35804;DHT22;21924;51.934;7.414;2022-07-15T03:21:16;11.60;99.90
35804;DHT22;21924;51.934;7.414;2022-07-15T03:24:00;11.50;99.90
35804;DHT22;21924;51.934;7.414;2022-07-15T03:26:45;11.40;99.90
35804;DHT22;21924;51.934;7.414;2022-07-15T03:29:29;11.30;99.90
35804;DHT22;21924;51.934;7.414;2022-07-15T03:32:14;11.30;99.90
35804;DHT22;21924;51.934;7.414;2022-07-15T03:35:00;11.20;99.90
35804;DHT22;21924;51.934;7.414;2022-07-15T03:37:45;11.20;99.90
35804;DHT22;21924;51.934;7.414;2022-07-15T03:40:29;11.10;99.90
35804;DHT22;21924;51.934;7.414;2022-07-15T03:43:15;11.10;99.90
35804;DHT22;21924;51.934;7.414;2022-07-15T03:45:59;11.10;99.90
35804;DHT22;21924;51.934;7.414;2022-07-15T03:48:43;11.10;99.90
35804;DHT22;21924;51.934;7.414;2022-07-15T03:51:29;11.20;99.90
35804;DHT22;21924;51.934;7.414;2022-07-15T03:54:14;11.20;99.90
35804;DHT22;21924;51.934;7.414;2022-07-15T03:56:59;11.10;99.90
35804;DHT22;21924;51.934;7.414;2022-07-15T03:59:43;11.20;99.90
35804;DHT22;21924;51.934;7.414;2022-07-15T04:02:29;11.20;99.90
35804;DHT22;21924;51.934;7.414;2022-07-15T04:05:15;11.20;99.90
35804;DHT22;21924;51.934;7.414;2022-07-15T04:07:59;11.20;99.90
35804;DHT22;21924;51.934;7.414;2022-07-15T04:10:43;11.20;99.90
35804;DHT22;21924;51.934;7.414;2022-07-15T04:13:28;11.20;99.90
35804;DHT22;21924;51.934;7.414;2022-07-15T04:16:12;11.30;99.90
35804;DHT22;21924;51.934;7.414;2022-07-15T04:18:56;11.30;99.90
35804;DHT22;21924;51.934;7.414;2022-07-15T04:21:41;11.30;99.90
35804;DHT22;21924;51.934;7.414;2022-07-15T04:24:25;11.40;99.90
35804;DHT22;21924;51.934;7.414;2022-07-15T04:27:09;11.60;99.90
35804;DHT22;21924;51.934;7.414;2022-07-15T04:29:54;11.80;99.90
35804;DHT22;21924;51.934;7.414;2022-07-15T04:32:39;12.20;99.90
35804;DHT22;21924;51.934;7.414;2022-07-15T04:35:23;12.70;99.90
35804;DHT22;21924;51.934;7.414;2022-07-15T04:38:07;12.90;99.90
35804;DHT22;21924;51.934;7.414;2022-07-15T04:40:52;13.10;99.90
35804;DHT22;21924;51.934;7.414;2022-07-15T04:43:39;13.40;99.90
35804;DHT22;21924;51.934;7.414;2022-07-15T04:46:23;13.60;99.90
35804;DHT22;21924;51.934;7.414;2022-07-15T04:49:08;13.70;99.90
35804;DHT22;21924;51.934;7.414;2022-07-15T04:52:11;13.70;99.90
35804;DHT22;21924;51.934;7.414;2022-07-15T04:54:55;13.60;99.90
35804;DHT22;21924;51.934;7.414;2022-07-15T04:57:40;13.60;99.90
35804;DHT22;21924;51.934;7.414;2022-07-15T05:00:25;13.50;99.90
35804;DHT22;21924;51.934;7.414;2022-07-15T05:03:10;13.50;99.90
35804;DHT22;21924;51.934;7.414;2022-07-15T05:05:55;13.70;99.90
35804;DHT22;21924;51.934;7.414;2022-07-15T05:08:39;13.70;99.90
35804;DHT22;21924;51.934;7.414;2022-07-15T05:11:24;13.70;99.90
35804;DHT22;21924;51.934;7.414;2022-07-15T05:14:09;13.80;99.90
35804;DHT22;21924;51.934;7.414;2022-07-15T05:16:54;13.90;99.90
35804;DHT22;21924;51.934;7.414;2022-07-15T05:19:39;14.00;99.90
35804;DHT22;21924;51.934;7.414;2022-07-15T05:22:24;14.00;99.90
35804;DHT22;21924;51.934;7.414;2022-07-15T05:25:09;14.10;99.90
35804;DHT22;21924;51.934;7.414;2022-07-15T05:27:53;14.10;99.90
35804;DHT22;21924;51.934;7.414;2022-07-15T05:30:38;14.20;99.90
35804;DHT22;21924;51.934;7.414;2022-07-15T05:33:22;14.20;99.90
35804;DHT22;21924;51.934;7.414;2022-07-15T05:36:15;14.30;99.90
35804;DHT22;21924;51.934;7.414;2022-07-15T05:38:59;14.30;99.90
35804;DHT22;21924;51.934;7.414;2022-07-15T05:41:44;14.40;99.90
35804;DHT22;21924;51.934;7.414;2022-07-15T05:44:28;14.40;99.90
35804;DHT22;21924;51.934;7.414;2022-07-15T05:47:12;14.40;99.90
35804;DHT22;21924;51.934;7.414;2022-07-15T05:49:56;14.40;99.90
35804;DHT22;21924;51.934;7.414;2022-07-15T05:52:41;14.30;99.90
35804;DHT22;21924;51.934;7.414;2022-07-15T05:55:25;14.40;99.90
35804;DHT22;21924;51.934;7.414;2022-07-15T05:58:10;14.50;99.90
35804;DHT22;21924;51.934;7.414;2022-07-15T06:00:54;14.80;99.90
35804;DHT22;21924;51.934;7.414;2022-07-15T06:03:39;15.00;99.90
35804;DHT22;21924;51.934;7.414;2022-07-15T06:06:23;15.30;99.90
35804;DHT22;21924;51.934;7.414;2022-07-15T06:09:08;15.40;99.90
35804;DHT22;21924;51.934;7.414;2022-07-15T06:11:53;15.40;99.90
35804;DHT22;21924;51.934;7.414;2022-07-15T06:14:38;15.30;99.90
35804;DHT22;21924;51.934;7.414;2022-07-15T06:17:22;15.30;99.90
35804;DHT22;21924;51.934;7.414;2022-07-15T06:20:08;15.40;99.90
35804;DHT22;21924;51.934;7.414;2022-07-15T06:22:52;15.50;99.90
35804;DHT22;21924;51.934;7.414;2022-07-15T06:25:37;15.40;99.90
35804;DHT22;21924;51.934;7.414;2022-07-15T06:28:21;15.40;99.90
35804;DHT22;21924;51.934;7.414;2022-07-15T06:31:05;15.40;99.90
35804;DHT22;21924;51.934;7.414;2022-07-15T06:33:50;15.40;99.90
35804;DHT22;21924;51.934;7.414;2022-07-15T06:36:35;15.50;99.90
35804;DHT22;21924;51.934;7.414;2022-07-15T06:39:29;15.70;99.90
35804;DHT22;21924;51.934;7.414;2022-07-15T06:42:13;15.80;99.90
35804;DHT22;21924;51.934;7.414;2022-07-15T06:44:58;15.80;99.90
35804;DHT22;21924;51.934;7.414;2022-07-15T06:47:42;15.80;99.90
35804;DHT22;21924;51.934;7.414;2022-07-15T06:50:27;15.90;99.90
35804;DHT22;21924;51.934;7.414;2022-07-15T06:53:11;16.10;99.90
35804;DHT22;21924;51.934;7.414;2022-07-15T06:56:18;16.00;99.90
35804;DHT22;21924;51.934;7.414;2022-07-15T06:59:02;16.10;99.90
35804;DHT22;21924;51.934;7.414;2022-07-15T07:01:47;16.30;99.90
35804;DHT22;21924;51.934;7.414;2022-07-15T07:04:31;16.30;99.90
35804;DHT22;21924;51.934;7.414;2022-07-15T07:07:16;16.30;99.90
35804;DHT22;21924;51.934;7.414;2022-07-15T07:10:00;16.10;99.90
35804;DHT22;21924;51.934;7.414;2022-07-15T07:12:45;16.10;99.90
35804;DHT22;21924;51.934;7.414;2022-07-15T07:15:29;16.40;99.90
35804;DHT22;21924;51.934;7.414;2022-07-15T07:18:13;16.50;99.90
35804;DHT22;21924;51.934;7.414;2022-07-15T07:20:58;16.70;99.90
35804;DHT22;21924;51.934;7.414;2022-07-15T07:24:06;16.90;99.90
35804;DHT22;21924;51.934;7.414;2022-07-15T07:27:31;17.10;99.90
35804;DHT22;21924;51.934;7.414;2022-07-15T07:30:15;17.20;99.90
35804;DHT22;21924;51.934;7.414;2022-07-15T07:33:00;17.20;99.90
35804;DHT22;21924;51.934;7.414;2022-07-15T07:35:44;17.30;99.90
35804;DHT22;21924;51.934;7.414;2022-07-15T07:38:28;17.40;99.90
35804;DHT22;21924;51.934;7.414;2022-07-15T07:41:13;17.60;99.90
35804;DHT22;21924;51.934;7.414;2022-07-15T07:43:57;17.70;99.90
35804;DHT22;21924;51.934;7.414;2022-07-15T07:46:42;17.50;99.90
35804;DHT22;21924;51.934;7.414;2022-07-15T07:49:26;17.40;99.90
35804;DHT22;21924;51.934;7.414;2022-07-15T07:52:11;17.30;99.90
35804;DHT22;21924;51.934;7.414;2022-07-15T07:55:24;17.20;99.90
35804;DHT22;21924;51.934;7.414;2022-07-15T07:59:21;17.30;99.90
35804;DHT22;21924;51.934;7.414;2022-07-15T08:02:06;17.40;99.90
35804;DHT22;21924;51.934;7.414;2022-07-15T08:04:50;17.40;99.90
35804;DHT22;21924;51.934;7.414;2022-07-15T08:07:35;17.50;99.90
35804;DHT22;21924;51.934;7.414;2022-07-15T08:10:20;17.70;99.90
35804;DHT22;21924;51.934;7.414;2022-07-15T08:13:05;18.00;99.90
35804;DHT22;21924;51.934;7.414;2022-07-15T08:15:50;18.40;99.90
35804;DHT22;21924;51.934;7.414;2022-07-15T08:18:36;18.60;99.90
35804;DHT22;21924;51.934;7.414;2022-07-15T08:21:20;18.50;99.90
35804;DHT22;21924;51.934;7.414;2022-07-15T08:24:05;18.30;99.90
35804;DHT22;21924;51.934;7.414;2022-07-15T08:26:49;18.00;99.90
35804;DHT22;21924;51.934;7.414;2022-07-15T08:29:34;18.00;99.90
35804;DHT22;21924;51.934;7.414;2022-07-15T08:32:19;18.10;99.90
35804;DHT22;21924;51.934;7.414;2022-07-15T08:35:04;18.30;99.90
35804;DHT22;21924;51.934;7.414;2022-07-15T08:37:48;18.50;99.90
35804;DHT22;21924;51.934;7.414;2022-07-15T08:40:34;18.70;99.90
35804;DHT22;21924;51.934;7.414;2022-07-15T08:43:19;18.70;99.90
35804;DHT22;21924;51.934;7.414;2022-07-15T08:46:06;18.40;99.90
35804;DHT22;21924;51.934;7.414;2022-07-15T08:48:51;18.20;99.90
35804;DHT22;21924;51.934;7.414;2022-07-15T08:51:36;18.30;99.90
35804;DHT22;21924;51.934;7.414;2022-07-15T08:54:29;18.40;99.90
35804;DHT22;21924;51.934;7.414;2022-07-15T08:57:14;18.70;99.90
35804;DHT22;21924;51.934;7.414;2022-07-15T08:59:59;18.80;99.90
35804;DHT22;21924;51.934;7.414;2022-07-15T09:02:43;19.00;99.90
35804;DHT22;21924;51.934;7.414;2022-07-15T09:05:29;19.10;99.90
35804;DHT22;21924;51.934;7.414;2022-07-15T09:08:16;18.90;99.90
35804;DHT22;21924;51.934;7.414;2022-07-15T09:11:01;18.60;99.90
35804;DHT22;21924;51.934;7.414;2022-07-15T09:13:45;18.30;99.90
35804;DHT22;21924;51.934;7.414;2022-07-15T09:16:30;18.30;99.90
35804;DHT22;21924;51.934;7.414;2022-07-15T09:19:15;18.60;99.90
35804;DHT22;21924;51.934;7.414;2022-07-15T09:22:04;19.00;99.90
35804;DHT22;21924;51.934;7.414;2022-07-15T09:25:05;19.30;99.90
35804;DHT22;21924;51.934;7.414;2022-07-15T09:27:50;19.60;99.90
35804;DHT22;21924;51.934;7.414;2022-07-15T09:30:44;19.70;99.90
35804;DHT22;21924;51.934;7.414;2022-07-15T09:33:50;19.60;99.90
35804;DHT22;21924;51.934;7.414;2022-07-15T09:36:41;19.60;99.90
35804;DHT22;21924;51.934;7.414;2022-07-15T09:39:25;19.60;99.90
35804;DHT22;21924;51.934;7.414;2022-07-15T09:42:11;19.80;99.90
35804;DHT22;21924;51.934;7.414;2022-07-15T09:44:56;20.30;99.90
35804;DHT22;21924;51.934;7.414;2022-07-15T09:48:08;20.60;99.90
35804;DHT22;21924;51.934;7.414;2022-07-15T09:50:58;20.60;99.90
35804;DHT22;21924;51.934;7.414;2022-07-15T09:53:43;20.40;99.90
35804;DHT22;21924;51.934;7.414;2022-07-15T09:56:38;20.20;99.90
35804;DHT22;21924;51.934;7.414;2022-07-15T09:59:22;20.10;99.90
35804;DHT22;21924;51.934;7.414;2022-07-15T10:02:07;20.00;99.90
35804;DHT22;21924;51.934;7.414;2022-07-15T10:04:52;20.20;99.90
35804;DHT22;21924;51.934;7.414;2022-07-15T10:07:37;20.60;99.90
35804;DHT22;21924;51.934;7.414;2022-07-15T10:10:25;20.90;99.10
35804;DHT22;21924;51.934;7.414;2022-07-15T10:20:27;20.70;97.80
35804;DHT22;21924;51.934;7.414;2022-07-15T10:26:39;20.80;99.30
35804;DHT22;21924;51.934;7.414;2022-07-15T10:29:29;21.20;98.80
35804;DHT22;21924;51.934;7.414;2022-07-15T10:32:14;21.10;97.10
35804;DHT22;21924;51.934;7.414;2022-07-15T10:34:58;20.90;98.50
35804;DHT22;21924;51.934;7.414;2022-07-15T10:41:09;20.40;98.30
35804;DHT22;21924;51.934;7.414;2022-07-15T10:43:54;20.40;98.00
35804;DHT22;21924;51.934;7.414;2022-07-15T10:46:39;20.50;98.30
35804;DHT22;21924;51.934;7.414;2022-07-15T10:49:30;20.80;98.30
35804;DHT22;21924;51.934;7.414;2022-07-15T10:52:20;21.00;98.20
35804;DHT22;21924;51.934;7.414;2022-07-15T10:55:05;21.30;98.00
35804;DHT22;21924;51.934;7.414;2022-07-15T10:57:51;21.60;97.50
35804;DHT22;21924;51.934;7.414;2022-07-15T11:00:37;21.80;96.50
35804;DHT22;21924;51.934;7.414;2022-07-15T11:03:22;22.00;96.40
35804;DHT22;21924;51.934;7.414;2022-07-15T11:06:06;22.00;96.50
35804;DHT22;21924;51.934;7.414;2022-07-15T11:08:52;22.20;96.50
35804;DHT22;21924;51.934;7.414;2022-07-15T11:14:47;22.10;95.10
35804;DHT22;21924;51.934;7.414;2022-07-15T11:20:19;22.50;95.30
35804;DHT22;21924;51.934;7.414;2022-07-15T11:23:04;22.20;95.30
35804;DHT22;21924;51.934;7.414;2022-07-15T11:25:50;22.10;95.50
35804;DHT22;21924;51.934;7.414;2022-07-15T11:28:36;22.10;95.50
35804;DHT22;21924;51.934;7.414;2022-07-15T11:31:22;22.40;95.20
35804;DHT22;21924;51.934;7.414;2022-07-15T11:34:07;22.70;95.30
35804;DHT22;21924;51.934;7.414;2022-07-15T11:36:58;22.80;95.00
35804;DHT22;21924;51.934;7.414;2022-07-15T11:39:43;22.80;94.30
35804;DHT22;21924;51.934;7.414;2022-07-15T11:42:31;22.90;94.40
35804;DHT22;21924;51.934;7.414;2022-07-15T11:45:37;22.90;93.80
35804;DHT22;21924;51.934;7.414;2022-07-15T11:48:22;22.70;94.10
35804;DHT22;21924;51.934;7.414;2022-07-15T11:51:08;22.40;93.30
35804;DHT22;21924;51.934;7.414;2022-07-15T11:53:54;22.20;94.20
35804;DHT22;21924;51.934;7.414;2022-07-15T11:56:38;22.00;94.90
35804;DHT22;21924;51.934;7.414;2022-07-15T11:59:23;21.80;94.00
35804;DHT22;21924;51.934;7.414;2022-07-15T12:02:10;22.20;94.30
35804;DHT22;21924;51.934;7.414;2022-07-15T12:05:02;22.50;94.10
35804;DHT22;21924;51.934;7.414;2022-07-15T12:07:48;22.70;94.00
35804;DHT22;21924;51.934;7.414;2022-07-15T12:10:36;22.70;93.40
35804;DHT22;21924;51.934;7.414;2022-07-15T12:13:22;22.50;93.50
35804;DHT22;21924;51.934;7.414;2022-07-15T12:16:06;21.90;93.10
35804;DHT22;21924;51.934;7.414;2022-07-15T12:19:25;21.50;93.80
35804;DHT22;21924;51.934;7.414;2022-07-15T12:22:10;21.90;93.50
35804;DHT22;21924;51.934;7.414;2022-07-15T12:24:55;22.20;92.80
35804;DHT22;21924;51.934;7.414;2022-07-15T12:27:39;22.70;93.20
35804;DHT22;21924;51.934;7.414;2022-07-15T12:30:36;22.80;93.50
35804;DHT22;21924;51.934;7.414;2022-07-15T12:33:22;22.70;93.10
35804;DHT22;21924;51.934;7.414;2022-07-15T12:36:19;22.90;93.10
35804;DHT22;21924;51.934;7.414;2022-07-15T12:39:06;23.10;92.50
35804;DHT22;21924;51.934;7.414;2022-07-15T12:42:06;23.20;92.60
35804;DHT22;21924;51.934;7.414;2022-07-15T12:45:16;23.00;92.40
35804;DHT22;21924;51.934;7.414;2022-07-15T12:53:38;22.50;92.20
35804;DHT22;21924;51.934;7.414;2022-07-15T12:56:22;23.00;92.60
35804;DHT22;21924;51.934;7.414;2022-07-15T12:59:07;23.50;92.00
35804;DHT22;21924;51.934;7.414;2022-07-15T13:02:04;23.60;92.60
35804;DHT22;21924;51.934;7.414;2022-07-15T13:04:49;23.70;91.30
35804;DHT22;21924;51.934;7.414;2022-07-15T13:07:34;23.70;91.70
35804;DHT22;21924;51.934;7.414;2022-07-15T13:10:18;23.80;91.90
35804;DHT22;21924;51.934;7.414;2022-07-15T13:13:03;23.60;91.10
35804;DHT22;21924;51.934;7.414;2022-07-15T13:15:48;23.30;91.20
35804;DHT22;21924;51.934;7.414;2022-07-15T13:18:34;23.10;91.30
35804;DHT22;21924;51.934;7.414;2022-07-15T13:21:19;23.40;91.50
35804;DHT22;21924;51.934;7.414;2022-07-15T13:24:04;23.70;91.40
35804;DHT22;21924;51.934;7.414;2022-07-15T13:26:48;24.10;91.10
35804;DHT22;21924;51.934;7.414;2022-07-15T13:29:33;23.90;90.60
35804;DHT22;21924;51.934;7.414;2022-07-15T13:32:17;23.80;91.00
35804;DHT22;21924;51.934;7.414;2022-07-15T13:35:02;23.70;91.20
35804;DHT22;21924;51.934;7.414;2022-07-15T13:37:46;23.20;90.60
35804;DHT22;21924;51.934;7.414;2022-07-15T13:40:31;22.60;91.00
35804;DHT22;21924;51.934;7.414;2022-07-15T13:43:15;22.40;91.90
35804;DHT22;21924;51.934;7.414;2022-07-15T13:46:00;22.20;92.00
35804;DHT22;21924;51.934;7.414;2022-07-15T13:48:45;22.30;92.40
35804;DHT22;21924;51.934;7.414;2022-07-15T13:51:29;22.30;92.30
35804;DHT22;21924;51.934;7.414;2022-07-15T13:54:13;22.40;92.20
35804;DHT22;21924;51.934;7.414;2022-07-15T13:56:58;22.20;92.00
35804;DHT22;21924;51.934;7.414;2022-07-15T13:59:42;22.30;92.50
35804;DHT22;21924;51.934;7.414;2022-07-15T14:02:26;22.50;92.30
35804;DHT22;21924;51.934;7.414;2022-07-15T14:05:12;22.60;92.80
35804;DHT22;21924;51.934;7.414;2022-07-15T14:07:59;23.20;92.80
35804;DHT22;21924;51.934;7.414;2022-07-15T14:10:43;23.60;91.80
35804;DHT22;21924;51.934;7.414;2022-07-15T14:13:28;23.40;91.60
35804;DHT22;21924;51.934;7.414;2022-07-15T14:16:13;22.90;91.50
35804;DHT22;21924;51.934;7.414;2022-07-15T14:18:57;22.70;92.60
35804;DHT22;21924;51.934;7.414;2022-07-15T14:21:41;22.80;92.20
35804;DHT22;21924;51.934;7.414;2022-07-15T14:24:26;22.80;91.80
35804;DHT22;21924;51.934;7.414;2022-07-15T14:27:10;22.70;92.10
35804;DHT22;21924;51.934;7.414;2022-07-15T14:29:54;22.70;92.50
35804;DHT22;21924;51.934;7.414;2022-07-15T14:32:40;22.50;92.60
35804;DHT22;21924;51.934;7.414;2022-07-15T14:35:24;22.50;92.60
35804;DHT22;21924;51.934;7.414;2022-07-15T14:38:08;22.50;92.70
35804;DHT22;21924;51.934;7.414;2022-07-15T14:40:52;22.40;92.70
35804;DHT22;21924;51.934;7.414;2022-07-15T14:43:37;22.30;92.30
35804;DHT22;21924;51.934;7.414;2022-07-15T14:46:21;22.00;93.20
35804;DHT22;21924;51.934;7.414;2022-07-15T14:49:06;22.10;92.90
35804;DHT22;21924;51.934;7.414;2022-07-15T14:51:50;22.10;93.00
35804;DHT22;21924;51.934;7.414;2022-07-15T14:54:34;22.10;92.00
35804;DHT22;21924;51.934;7.414;2022-07-15T14:57:19;22.10;92.10
35804;DHT22;21924;51.934;7.414;2022-07-15T15:00:04;22.10;92.60
35804;DHT22;21924;51.934;7.414;2022-07-15T15:02:49;21.90;92.30
35804;DHT22;21924;51.934;7.414;2022-07-15T15:05:34;21.80;93.10
35804;DHT22;21924;51.934;7.414;2022-07-15T15:08:18;21.90;93.20
35804;DHT22;21924;51.934;7.414;2022-07-15T15:11:03;21.90;93.10
35804;DHT22;21924;51.934;7.414;2022-07-15T15:13:48;21.80;93.30
35804;DHT22;21924;51.934;7.414;2022-07-15T15:16:33;21.70;93.40
35804;DHT22;21924;51.934;7.414;2022-07-15T15:19:17;21.80;93.50
35804;DHT22;21924;51.934;7.414;2022-07-15T15:22:02;21.70;93.50
35804;DHT22;21924;51.934;7.414;2022-07-15T15:24:46;21.80;93.60
35804;DHT22;21924;51.934;7.414;2022-07-15T15:27:32;21.80;93.40
35804;DHT22;21924;51.934;7.414;2022-07-15T15:30:16;22.00;93.60
35804;DHT22;21924;51.934;7.414;2022-07-15T15:33:00;22.20;93.30
35804;DHT22;21924;51.934;7.414;2022-07-15T15:35:45;22.30;93.60
35804;DHT22;21924;51.934;7.414;2022-07-15T15:38:29;22.30;93.50
35804;DHT22;21924;51.934;7.414;2022-07-15T15:41:14;22.30;93.70
35804;DHT22;21924;51.934;7.414;2022-07-15T15:43:58;22.30;93.60
35804;DHT22;21924;51.934;7.414;2022-07-15T15:46:43;22.50;93.50
35804;DHT22;21924;51.934;7.414;2022-07-15T15:49:28;22.60;93.10
35804;DHT22;21924;51.934;7.414;2022-07-15T15:52:12;22.70;92.70
35804;DHT22;21924;51.934;7.414;2022-07-15T15:54:59;22.70;93.10
35804;DHT22;21924;51.934;7.414;2022-07-15T15:57:44;22.70;92.70
35804;DHT22;21924;51.934;7.414;2022-07-15T16:00:28;22.70;93.00
35804;DHT22;21924;51.934;7.414;2022-07-15T16:03:13;22.60;93.40
35804;DHT22;21924;51.934;7.414;2022-07-15T16:05:58;22.60;93.40
35804;DHT22;21924;51.934;7.414;2022-07-15T16:08:42;22.60;93.30
35804;DHT22;21924;51.934;7.414;2022-07-15T16:11:27;22.90;93.30
35804;DHT22;21924;51.934;7.414;2022-07-15T16:14:11;23.00;93.10
35804;DHT22;21924;51.934;7.414;2022-07-15T16:16:56;22.80;93.40
35804;DHT22;21924;51.934;7.414;2022-07-15T16:19:41;22.80;93.00
35804;DHT22;21924;51.934;7.414;2022-07-15T16:22:25;22.70;93.30
35804;DHT22;21924;51.934;7.414;2022-07-15T16:25:33;22.60;92.70
35804;DHT22;21924;51.934;7.414;2022-07-15T16:28:20;22.70;93.40
35804;DHT22;21924;51.934;7.414;2022-07-15T16:31:04;22.80;93.90
35804;DHT22;21924;51.934;7.414;2022-07-15T16:33:49;23.00;93.30
35804;DHT22;21924;51.934;7.414;2022-07-15T16:36:33;22.90;93.30
35804;DHT22;21924;51.934;7.414;2022-07-15T16:39:18;22.80;93.70
35804;DHT22;21924;51.934;7.414;2022-07-15T16:42:02;22.60;93.50
35804;DHT22;21924;51.934;7.414;2022-07-15T16:44:47;22.30;93.70
35804;DHT22;21924;51.934;7.414;2022-07-15T16:47:32;22.20;93.90
35804;DHT22;21924;51.934;7.414;2022-07-15T16:50:22;22.20;94.40
35804;DHT22;21924;51.934;7.414;2022-07-15T16:53:07;22.30;94.10
35804;DHT22;21924;51.934;7.414;2022-07-15T16:55:51;22.30;94.00
35804;DHT22;21924;51.934;7.414;2022-07-15T16:58:36;22.30;94.10
35804;DHT22;21924;51.934;7.414;2022-07-15T17:01:20;22.40;94.40
35804;DHT22;21924;51.934;7.414;2022-07-15T17:04:04;22.20;94.00
35804;DHT22;21924;51.934;7.414;2022-07-15T17:06:49;22.30;94.00
35804;DHT22;21924;51.934;7.414;2022-07-15T17:09:34;22.40;93.80
35804;DHT22;21924;51.934;7.414;2022-07-15T17:12:19;23.10;93.20
35804;DHT22;21924;51.934;7.414;2022-07-15T17:15:04;23.90;92.70
35804;DHT22;21924;51.934;7.414;2022-07-15T17:17:49;24.30;92.20
35804;DHT22;21924;51.934;7.414;2022-07-15T17:20:33;24.10;92.00
35804;DHT22;21924;51.934;7.414;2022-07-15T17:23:18;23.70;92.50
35804;DHT22;21924;51.934;7.414;2022-07-15T17:26:02;24.00;92.70
35804;DHT22;21924;51.934;7.414;2022-07-15T17:28:47;24.50;91.50
35804;DHT22;21924;51.934;7.414;2022-07-15T17:31:31;25.20;90.90
35804;DHT22;21924;51.934;7.414;2022-07-15T17:34:16;25.70;90.50
35804;DHT22;21924;51.934;7.414;2022-07-15T17:37:01;25.40;90.20
35804;DHT22;21924;51.934;7.414;2022-07-15T17:39:45;24.70;91.20
35804;DHT22;21924;51.934;7.414;2022-07-15T17:42:29;24.00;91.40
35804;DHT22;21924;51.934;7.414;2022-07-15T17:45:14;23.40;91.90
35804;DHT22;21924;51.934;7.414;2022-07-15T17:47:58;22.90;92.40
35804;DHT22;21924;51.934;7.414;2022-07-15T17:50:43;22.40;93.00
35804;DHT22;21924;51.934;7.414;2022-07-15T17:53:28;22.10;93.60